MSC Sinfonia — H8XH — position and weather

sailwx.info

Track history (hours):
 
Tides and Currents Weather Stations Pressure Air Temp Water Temp Dewpoint Dewpoint Depression Visibility Wind Speed Wind Dir Waves Ship Positions

MSC Sinfonia

Last reported at 2015-May-28 07:28 UTC. Time now 2015-May-28 08:10 UTC.
Position N 59°57' E 030°11'.

Length 251 m; draft 6.8 m.

Type: Passenger vessel. MMSI: 356715971.

Date/timePositionNaut miles runAvg speedWind from/ knotsBaromVisibWave heightAir tempDewpointWater temp
2015-May-28 07:28N 59°57' E 030°11'0 0.0
2015-May-28 06:31N 59°57' E 030°11'0 0.0
2015-May-28 05:31N 59°57' E 030°11'0 0.0
2015-May-28 04:31N 59°57' E 030°11'0 0.0
2015-May-28 03:31N 59°57' E 030°11'6 6.4
2015-May-28 02:33N 59°55' E 029°59'1110.9
2015-May-28 01:33N 59°60' E 029°39'7111.8
2015-May-27 19:33N 60°02' E 027°17'1313.4
2015-May-27 18:33N 59°59' E 026°52'1414.0
2015-May-27 17:33N 59°57' E 026°24'1615.3
2015-May-27 16:31N 59°53' E 025°53'1515.4
2015-May-27 15:33N 59°48' E 025°25'1915.3
2015-May-27 14:16N 59°42' E 024°48'1013.4
2015-May-27 13:32N 59°32' E 024°44'6 0.8
2015-May-27 06:30N 59°27' E 024°46'0 0.0
2015-May-27 05:33N 59°27' E 024°46'6 5.6
2015-May-27 04:34N 59°30' E 024°37'10416.9
2015-May-26 22:27N 59°25' E 021°13'9511.4
2015-May-26 14:10N 59°21' E 018°08'0 0.0
2015-May-26 12:12N 59°21' E 018°08'0 0.0
2015-May-26 06:31N 59°21' E 018°08'6 6.0
2015-May-26 05:33N 59°23' E 018°18'239 8.8
2015-May-25 02:31N 55°41' E 015°36'1717.4
2015-May-25 01:33N 55°33' E 015°09'1817.6
2015-May-25 00:33N 55°24' E 014°43'1717.4
2015-May-24 23:33N 55°11' E 014°23'1717.1
2015-May-24 22:34N 54°60' E 014°01'6817.0
2015-May-24 18:32N 54°30' E 012°14'1616.3
2015-May-24 17:33N 54°15' E 012°04'4 2.2
2015-May-24 15:31N 54°11' E 012°06'0 0.0
2015-May-24 14:25N 54°11' E 012°06'0 0.0
2015-May-24 13:19N 54°11' E 012°06'0 0.0
2015-May-24 12:28N 54°11' E 012°06'0 0.0
2015-May-24 11:31N 54°11' E 012°06'0 0.0
2015-May-24 10:22N 54°11' E 012°06'0 0.0
2015-May-24 09:31N 54°11' E 012°06'0 0.0
2015-May-24 08:25N 54°11' E 012°06'0 0.0
2015-May-24 07:25N 54°11' E 012°06'0 0.0
2015-May-24 06:25N 54°11' E 012°06'0 0.1
2015-May-24 05:33N 54°11' E 012°06'7 5.0
2015-May-24 04:10N 54°17' E 012°00'610.0
2015-May-24 03:33N 54°22' E 011°56'6 6.0
2015-May-24 02:33N 54°26' E 012°04'44 8.0
2015-May-23 21:05N 55°05' E 012°39'5 8.5
2015-May-23 20:32N 55°10' E 012°39'8 8.4
2015-May-23 19:33N 55°18' E 012°38'8 8.4
2015-May-23 18:33N 55°26' E 012°40'8 8.4
2015-May-23 17:33N 55°34' E 012°42'9 8.6
2015-May-23 16:33N 55°43' E 012°41'2 1.9
2015-May-23 15:32N 55°43' E 012°37'0 0.0
2015-May-23 14:32N 55°43' E 012°37'0 0.0
2015-May-23 13:32N 55°43' E 012°37'0 0.0
2015-May-23 12:32N 55°43' E 012°37'0 0.0
2015-May-23 11:32N 55°43' E 012°37'0 0.0
2015-May-23 10:32N 55°43' E 012°37'0 0.0
2015-May-23 09:32N 55°43' E 012°37'0 0.0
2015-May-23 08:32N 55°43' E 012°37'0 0.0
2015-May-23 07:32N 55°43' E 012°37'0 0.0
2015-May-23 06:33N 55°43' E 012°37'6 5.6
2015-May-23 05:33N 55°48' E 012°43'1212.4
2015-May-23 04:33N 55°60' E 012°40'1312.8
2015-May-23 03:33N 56°09' E 012°25'1413.7
2015-May-23 02:33N 56°17' E 012°05'1713.9
2015-May-23 01:21N 56°33' E 011°57'1114.4
2015-May-23 00:34N 56°45' E 011°52'1414.3
2015-May-22 23:34N 56°58' E 011°44'1514.4
2015-May-22 22:33N 57°12' E 011°35'1414.5
2015-May-22 21:33N 57°25' E 011°26'1413.9
2015-May-22 20:33N 57°36' E 011°08'1414.4
2015-May-22 19:33N 57°45' E 010°47'16216.1
2015-May-22 09:30N 58°05' E 005°44'2217.4
2015-May-22 08:14N 58°20' E 005°13'  
2015-May-18 19:33N 58°23' E 005°22'1918.3
2015-May-18 18:32N 58°10' E 005°49'15517.2
2015-May-18 09:34N 57°49' E 010°38'1918.7
2015-May-18 08:34N 57°38' E 011°07'1918.9
2015-May-18 07:34N 57°24' E 011°30'  
Track history (hours):
 
Tides and Currents Weather Stations Pressure Air Temp Water Temp Dewpoint Dewpoint Depression Visibility Wind Speed Wind Dir Waves Ship Positions

MSC Sinfonia

Last reported at 2015-May-28 07:28 UTC. Time now 2015-May-28 08:10 UTC.
Position N 59°57' E 030°11'.

Length 251 m; draft 6.8 m.

Type: Passenger vessel. MMSI: 356715971.

Date/timePositionNaut miles runAvg speedWind from/ knotsBaromVisibWave heightAir tempDewpointWater temp
2015-May-28 07:28N 59°57' E 030°11'0 0.0
2015-May-28 06:31N 59°57' E 030°11'0 0.0
2015-May-28 05:31N 59°57' E 030°11'0 0.0
2015-May-28 04:31N 59°57' E 030°11'0 0.0
2015-May-28 03:31N 59°57' E 030°11'6 6.4
2015-May-28 02:33N 59°55' E 029°59'1110.9
2015-May-28 01:33N 59°60' E 029°39'7111.8
2015-May-27 19:33N 60°02' E 027°17'1313.4
2015-May-27 18:33N 59°59' E 026°52'1414.0
2015-May-27 17:33N 59°57' E 026°24'1615.3
2015-May-27 16:31N 59°53' E 025°53'1515.4
2015-May-27 15:33N 59°48' E 025°25'1915.3
2015-May-27 14:16N 59°42' E 024°48'1013.4
2015-May-27 13:32N 59°32' E 024°44'6 0.8
2015-May-27 06:30N 59°27' E 024°46'0 0.0
2015-May-27 05:33N 59°27' E 024°46'6 5.6
2015-May-27 04:34N 59°30' E 024°37'10416.9
2015-May-26 22:27N 59°25' E 021°13'9511.4
2015-May-26 14:10N 59°21' E 018°08'0 0.0
2015-May-26 12:12N 59°21' E 018°08'0 0.0
2015-May-26 06:31N 59°21' E 018°08'6 6.0
2015-May-26 05:33N 59°23' E 018°18'239 8.8
2015-May-25 02:31N 55°41' E 015°36'1717.4
2015-May-25 01:33N 55°33' E 015°09'1817.6
2015-May-25 00:33N 55°24' E 014°43'1717.4
2015-May-24 23:33N 55°11' E 014°23'1717.1
2015-May-24 22:34N 54°60' E 014°01'6817.0
2015-May-24 18:32N 54°30' E 012°14'1616.3
2015-May-24 17:33N 54°15' E 012°04'4 2.2
2015-May-24 15:31N 54°11' E 012°06'0 0.0
2015-May-24 14:25N 54°11' E 012°06'0 0.0
2015-May-24 13:19N 54°11' E 012°06'0 0.0
2015-May-24 12:28N 54°11' E 012°06'0 0.0
2015-May-24 11:31N 54°11' E 012°06'0 0.0
2015-May-24 10:22N 54°11' E 012°06'0 0.0
2015-May-24 09:31N 54°11' E 012°06'0 0.0
2015-May-24 08:25N 54°11' E 012°06'0 0.0
2015-May-24 07:25N 54°11' E 012°06'0 0.0
2015-May-24 06:25N 54°11' E 012°06'0 0.1
2015-May-24 05:33N 54°11' E 012°06'7 5.0
2015-May-24 04:10N 54°17' E 012°00'610.0
2015-May-24 03:33N 54°22' E 011°56'6 6.0
2015-May-24 02:33N 54°26' E 012°04'44 8.0
2015-May-23 21:05N 55°05' E 012°39'5 8.5
2015-May-23 20:32N 55°10' E 012°39'8 8.4
2015-May-23 19:33N 55°18' E 012°38'8 8.4
2015-May-23 18:33N 55°26' E 012°40'8 8.4
2015-May-23 17:33N 55°34' E 012°42'9 8.6
2015-May-23 16:33N 55°43' E 012°41'2 1.9
2015-May-23 15:32N 55°43' E 012°37'0 0.0
2015-May-23 14:32N 55°43' E 012°37'0 0.0
2015-May-23 13:32N 55°43' E 012°37'0 0.0
2015-May-23 12:32N 55°43' E 012°37'0 0.0
2015-May-23 11:32N 55°43' E 012°37'0 0.0
2015-May-23 10:32N 55°43' E 012°37'0 0.0
2015-May-23 09:32N 55°43' E 012°37'0 0.0
2015-May-23 08:32N 55°43' E 012°37'0 0.0
2015-May-23 07:32N 55°43' E 012°37'0 0.0
2015-May-23 06:33N 55°43' E 012°37'6 5.6
2015-May-23 05:33N 55°48' E 012°43'1212.4
2015-May-23 04:33N 55°60' E 012°40'1312.8
2015-May-23 03:33N 56°09' E 012°25'1413.7
2015-May-23 02:33N 56°17' E 012°05'1713.9
2015-May-23 01:21N 56°33' E 011°57'1114.4
2015-May-23 00:34N 56°45' E 011°52'1414.3
2015-May-22 23:34N 56°58' E 011°44'1514.4
2015-May-22 22:33N 57°12' E 011°35'1414.5
2015-May-22 21:33N 57°25' E 011°26'1413.9
2015-May-22 20:33N 57°36' E 011°08'1414.4
2015-May-22 19:33N 57°45' E 010°47'16216.1
2015-May-22 09:30N 58°05' E 005°44'2217.4
2015-May-22 08:14N 58°20' E 005°13'  
2015-May-18 19:33N 58°23' E 005°22'1918.3
2015-May-18 18:32N 58°10' E 005°49'15517.2
2015-May-18 09:34N 57°49' E 010°38'1918.7
2015-May-18 08:34N 57°38' E 011°07'1918.9
2015-May-18 07:34N 57°24' E 011°30'  

Dump ship's entire track history